Time;durP1;ratioP1;P1;durP2;ratioP2;P2;SDS_P1;SDS_P2;PMS_P1;PMS_P2;Temp;Humidity;BMP_temperature;BMP_pressure;BME280_temperature;BME280_humidity;BME280_pressure;Samples;Min_cycle;Max_cycle;Signal;HPM_P1;HPM_P2
2023/03/26 00:01:09;;;;;;;6.40;1.77;;;;;;;11.81;65.76;99882.63;5022284;28;20889;-72
2023/03/26 00:03:36;;;;;;;2.15;1.13;;;;;;;11.80;65.81;99884.50;5019264;28;20441;-73
2023/03/26 00:06:07;;;;;;;5.35;1.23;;;;;;;11.80;65.67;99886.41;5029057;28;20825;-72
2023/03/26 00:08:34;;;;;;;6.20;1.75;;;;;;;11.84;65.30;99885.63;5017682;28;20395;-72
2023/03/26 00:11:00;;;;;;;5.47;1.70;;;;;;;11.85;65.14;99883.72;5022783;28;20479;-72
2023/03/26 00:13:25;;;;;;;3.10;1.37;;;;;;;11.85;65.14;99884.53;5026398;28;20441;-72
2023/03/26 00:15:51;;;;;;;3.47;1.10;;;;;;;11.84;64.89;99882.09;5031226;28;20429;-72
2023/03/26 00:18:18;;;;;;;4.50;1.27;;;;;;;11.85;64.91;99887.25;5017914;28;20483;-72
2023/03/26 00:20:44;;;;;;;4.80;1.23;;;;;;;11.83;64.85;99878.56;5022027;28;20404;-72
2023/03/26 00:23:09;;;;;;;4.63;1.10;;;;;;;11.84;65.06;99877.47;5025411;28;20474;-72
2023/03/26 00:25:38;;;;;;;4.00;1.13;;;;;;;11.93;64.50;99872.31;5020236;28;20477;-72
2023/03/26 00:28:05;;;;;;;4.85;1.00;;;;;;;11.98;64.33;99871.53;5027803;28;20405;-72
2023/03/26 00:30:32;;;;;;;6.40;1.00;;;;;;;11.97;64.36;99873.44;5020993;28;20569;-72
2023/03/26 00:32:57;;;;;;;4.47;1.33;;;;;;;11.96;64.40;99869.91;5019736;28;20399;-72
2023/03/26 00:35:23;;;;;;;4.17;1.40;;;;;;;11.96;64.20;99871.78;5028481;28;20834;-72
2023/03/26 00:37:50;;;;;;;8.00;1.48;;;;;;;11.91;64.37;99869.06;5016063;28;20407;-72
2023/03/26 00:40:15;;;;;;;3.35;1.05;;;;;;;11.89;64.58;99860.38;5024259;28;20416;-72
2023/03/26 00:42:41;;;;;;;5.13;1.30;;;;;;;11.88;64.50;99864.19;5022995;28;20484;-72
2023/03/26 00:45:08;;;;;;;2.83;1.07;;;;;;;11.88;64.73;99864.19;5016793;28;20393;-72
2023/03/26 00:47:33;;;;;;;4.82;0.95;;;;;;;11.87;64.45;99857.13;5031410;28;20723;-72
2023/03/26 00:49:59;;;;;;;5.45;0.93;;;;;;;11.88;64.54;99859.56;5025165;28;20400;-72
2023/03/26 00:52:27;;;;;;;2.57;1.10;;;;;;;11.88;64.60;99864.19;5023241;28;20390;-72
2023/03/26 00:54:53;;;;;;;3.97;1.00;;;;;;;11.86;64.51;99855.47;5017354;28;20404;-72
2023/03/26 00:57:20;;;;;;;7.05;1.02;;;;;;;11.84;64.86;99852.22;5026924;28;20392;-72
2023/03/26 00:59:46;;;;;;;6.45;1.20;;;;;;;11.85;64.57;99848.44;5019468;28;20485;-72
2023/03/26 01:02:15;;;;;;;5.90;1.60;;;;;;;11.84;64.33;99833.22;5030620;28;20893;-72
2023/03/26 01:04:44;;;;;;;4.50;1.15;;;;;;;11.82;64.46;99830.75;5017253;28;20446;-72
2023/03/26 01:07:18;;;;;;;4.18;1.00;;;;;;;11.83;64.41;99828.84;5027982;28;20748;-72
2023/03/26 01:09:49;;;;;;;4.50;1.20;;;;;;;11.82;64.31;99825.31;5019364;28;20395;-72
2023/03/26 01:12:17;;;;;;;5.40;1.30;;;;;;;11.81;64.30;99823.72;5018391;28;20431;-72
2023/03/26 01:14:44;;;;;;;5.30;1.30;;;;;;;11.77;64.23;99825.31;5028031;28;20375;-72
2023/03/26 01:17:11;;;;;;;5.60;1.45;;;;;;;11.74;64.09;99816.91;5016507;28;20899;-72
2023/03/26 01:20:04;;;;;;;3.50;1.45;;;;;;;11.74;64.17;99808.75;5031653;28;20545;-72
2023/03/26 01:22:29;;;;;;;3.33;1.23;;;;;;;11.78;64.26;99812.56;5020238;28;20404;-72
2023/03/26 01:24:55;;;;;;;5.77;1.20;;;;;;;11.77;63.84;99805.50;5030771;28;20752;-72
2023/03/26 01:27:37;;;;;;;4.80;1.10;;;;;;;11.80;63.79;99800.34;5034799;28;20858;-72
2023/03/26 01:30:15;;;;;;;4.55;1.00;;;;;;;11.80;63.81;99788.69;5035685;28;20387;-72
2023/03/26 01:32:51;;;;;;;3.93;1.23;;;;;;;11.80;63.97;99785.97;5019412;28;20396;-72
2023/03/26 01:35:25;;;;;;;5.40;1.05;;;;;;;11.81;63.82;99774.84;5027310;28;20446;-72
2023/03/26 01:38:17;;;;;;;4.20;1.10;;;;;;;11.82;63.75;99775.66;5043249;28;20411;-72
2023/03/26 01:40:57;;;;;;;4.30;1.27;;;;;;;11.81;63.74;99765.88;5019281;28;20415;-72
2023/03/26 01:43:41;;;;;;;6.80;1.00;;;;;;;11.83;63.56;99759.09;5040341;28;20410;-72
2023/03/26 01:46:10;;;;;;;8.73;1.45;;;;;;;11.83;63.51;99764.53;5038105;28;20464;-72
2023/03/26 01:48:39;;;;;;;3.80;1.02;;;;;;;11.83;63.54;99753.66;5018006;28;20395;-72
2023/03/26 01:51:05;;;;;;;6.28;1.58;;;;;;;11.81;63.67;99738.75;5027795;28;20476;-72
2023/03/26 01:53:33;;;;;;;3.72;1.23;;;;;;;11.81;63.70;99736.03;5034727;28;20782;-72
2023/03/26 01:56:20;;;;;;;4.05;0.85;;;;;;;11.82;63.81;99738.44;5035255;28;20434;-72
2023/03/26 01:59:15;;;;;;;4.15;1.00;;;;;;;11.84;63.97;99730.06;5034001;28;20411;-72
2023/03/26 02:02:06;;;;;;;7.22;1.83;;;;;;;11.83;64.17;99726.53;5039452;28;20419;-72
2023/03/26 02:04:34;;;;;;;5.88;1.17;;;;;;;11.79;64.31;99717.28;5035875;28;20391;-72
2023/03/26 02:07:27;;;;;;;5.10;1.40;;;;;;;11.73;64.55;99709.41;5040064;28;20866;-72
2023/03/26 02:10:05;;;;;;;5.35;1.70;;;;;;;11.70;64.55;99708.06;5032239;28;20402;-72
2023/03/26 02:12:32;;;;;;;6.18;1.25;;;;;;;11.70;64.25;99709.91;5027781;28;20480;-72
2023/03/26 02:14:59;;;;;;;3.93;1.00;;;;;;;11.66;64.32;99711.53;5050181;28;20804;-72
2023/03/26 02:17:24;;;;;;;4.87;1.10;;;;;;;11.61;64.26;99706.94;5044499;28;20387;-72
2023/03/26 02:19:50;;;;;;;2.17;1.17;;;;;;;11.62;64.26;99697.72;5035216;28;20411;-72
2023/03/26 02:22:15;;;;;;;3.70;0.93;;;;;;;11.61;64.30;99697.97;5028919;28;20479;-72
2023/03/26 02:24:42;;;;;;;6.13;1.20;;;;;;;11.61;64.18;99690.66;5020590;28;20870;-72
2023/03/26 02:27:08;;;;;;;6.68;1.30;;;;;;;11.60;64.44;99689.00;5031885;28;20449;-72
2023/03/26 02:29:36;;;;;;;5.05;1.08;;;;;;;11.59;64.27;99692.00;5018443;28;20432;-72
2023/03/26 02:32:03;;;;;;;9.45;1.30;;;;;;;11.54;64.69;99684.66;5029340;28;20393;-72
2023/03/26 02:34:29;;;;;;;3.53;1.23;;;;;;;11.52;64.71;99681.41;5023807;28;20390;-72
2023/03/26 02:36:55;;;;;;;9.43;1.53;;;;;;;11.51;64.54;99671.63;5021560;28;20392;-72
2023/03/26 02:39:21;;;;;;;2.90;1.10;;;;;;;11.48;64.60;99666.75;5030432;28;20450;-72
2023/03/26 02:41:46;;;;;;;7.57;1.93;;;;;;;11.48;64.64;99664.03;5018094;28;20453;-72
2023/03/26 02:44:12;;;;;;;5.63;1.73;;;;;;;11.49;64.66;99656.72;5026062;28;20408;-72
2023/03/26 02:46:37;;;;;;;4.87;1.30;;;;;;;11.50;64.58;99655.63;5026160;28;20395;-72
2023/03/26 02:49:02;;;;;;;3.53;1.20;;;;;;;11.48;64.71;99652.38;5034206;28;20482;-72
2023/03/26 02:51:27;;;;;;;9.00;1.67;;;;;;;11.49;64.92;99648.59;5016631;28;20395;-72
2023/03/26 02:53:53;;;;;;;5.60;1.77;;;;;;;11.50;65.00;99647.47;5027250;28;20400;-72
2023/03/26 02:56:19;;;;;;;4.37;1.30;;;;;;;11.51;64.92;99635.56;5025310;28;20444;-72
2023/03/26 02:58:45;;;;;;;4.03;1.50;;;;;;;11.50;64.94;99629.31;5020036;28;20389;-72
2023/03/26 03:01:11;;;;;;;4.03;1.35;;;;;;;11.51;65.12;99628.22;5032613;28;20773;-72
2023/03/26 03:03:37;;;;;;;4.70;1.60;;;;;;;11.55;64.96;99628.50;5026384;28;20389;-72
2023/03/26 03:06:02;;;;;;;7.18;1.45;;;;;;;11.57;65.22;99626.31;5023974;28;20390;-72
2023/03/26 03:08:28;;;;;;;4.20;1.17;;;;;;;11.58;65.37;99623.34;5020056;28;20721;-72
2023/03/26 03:10:56;;;;;;;4.70;1.15;;;;;;;11.57;65.59;99612.75;5030116;28;20409;-72
2023/03/26 03:13:21;;;;;;;2.58;0.95;;;;;;;11.55;65.67;99613.03;5019393;28;20479;-72
2023/03/26 03:15:47;;;;;;;7.20;1.00;;;;;;;11.55;65.60;99610.31;5025105;28;20421;-72
2023/03/26 03:18:12;;;;;;;4.53;1.23;;;;;;;11.54;65.94;99603.25;5026716;28;20387;-72
2023/03/26 03:20:37;;;;;;;10.38;1.35;;;;;;;11.54;66.04;99589.69;5032904;28;20504;-72
2023/03/26 03:23:02;;;;;;;4.60;1.00;;;;;;;11.55;65.82;99591.34;5017934;28;20513;-72
2023/03/26 03:25:27;;;;;;;4.57;1.77;;;;;;;11.49;65.97;99595.13;5032168;28;20406;-72
2023/03/26 03:27:53;;;;;;;6.53;1.23;;;;;;;11.53;66.13;99600.81;5033495;28;20859;-72
2023/03/26 03:30:18;;;;;;;8.57;1.30;;;;;;;11.50;66.04;99595.94;5033397;28;20403;-72
2023/03/26 03:32:43;;;;;;;5.77;1.20;;;;;;;11.44;66.29;99595.94;5032387;28;20456;-72
2023/03/26 03:35:09;;;;;;;7.03;2.43;;;;;;;11.46;66.20;99582.91;5026569;28;20393;-72
2023/03/26 03:37:34;;;;;;;8.25;2.15;;;;;;;11.53;66.57;99582.63;5023699;28;20874;-72
2023/03/26 03:39:59;;;;;;;7.47;1.77;;;;;;;11.55;66.32;99569.63;5043031;28;20399;-72
2023/03/26 03:42:26;;;;;;;6.77;1.40;;;;;;;11.53;66.69;99569.06;5032760;28;20418;-72
2023/03/26 03:44:51;;;;;;;7.30;2.30;;;;;;;11.51;66.56;99562.28;5027259;28;20455;-72
2023/03/26 03:47:16;;;;;;;4.68;2.38;;;;;;;11.48;66.91;99554.69;5022715;28;20387;-72
2023/03/26 03:49:42;;;;;;;6.30;2.10;;;;;;;11.46;67.14;99549.53;5020390;28;20395;-72
2023/03/26 03:52:07;;;;;;;4.10;1.30;;;;;;;11.46;67.53;99544.91;5025731;28;20406;-72
2023/03/26 03:54:32;;;;;;;4.23;1.10;;;;;;;11.44;67.46;99538.16;5028475;28;20405;-72
2023/03/26 03:56:58;;;;;;;6.10;1.13;;;;;;;11.42;67.75;99540.34;5021268;28;20449;-72
2023/03/26 03:59:23;;;;;;;4.97;0.97;;;;;;;11.40;67.76;99532.44;5020894;28;20455;-72
2023/03/26 04:01:49;;;;;;;8.45;1.35;;;;;;;11.40;67.92;99523.50;5027393;28;20505;-72
2023/03/26 04:04:15;;;;;;;5.82;1.15;;;;;;;11.38;68.01;99528.41;5016635;28;20743;-72
2023/03/26 04:06:40;;;;;;;4.32;1.10;;;;;;;11.37;67.93;99519.44;5026278;28;20397;-72
2023/03/26 04:09:06;;;;;;;3.30;1.20;;;;;;;11.36;68.17;99512.38;5039296;28;20396;-72
2023/03/26 04:11:31;;;;;;;6.73;1.20;;;;;;;11.38;68.23;99506.69;5042798;28;20391;-73
2023/03/26 04:13:56;;;;;;;3.80;0.93;;;;;;;11.34;68.33;99498.28;5032622;28;20747;-72
2023/03/26 04:16:21;;;;;;;2.85;1.10;;;;;;;11.34;68.35;99486.63;5025385;28;20396;-72
2023/03/26 04:18:47;;;;;;;8.30;1.10;;;;;;;11.30;68.05;99497.19;5022381;28;20430;-72
2023/03/26 04:21:14;;;;;;;6.40;1.70;;;;;;;11.30;68.03;99494.47;5019078;28;20495;-72
2023/03/26 04:23:41;;;;;;;4.70;1.17;;;;;;;11.30;68.20;99480.09;5027881;28;20946;-72
2023/03/26 04:26:09;;;;;;;5.32;1.23;;;;;;;11.29;68.36;99475.78;5027062;28;20751;-72
2023/03/26 04:28:45;;;;;;;6.90;1.48;;;;;;;11.27;68.32;99467.91;5037101;28;20824;-72
2023/03/26 04:31:14;;;;;;;7.28;1.98;;;;;;;11.25;68.67;99469.28;5032416;28;20858;-72
2023/03/26 04:33:45;;;;;;;12.67;5.57;;;;;;;11.23;68.72;99464.13;5046489;28;20717;-72
2023/03/26 04:36:11;;;;;;;6.60;1.73;;;;;;;11.22;68.96;99465.22;5032245;28;20436;-72
2023/03/26 04:38:42;;;;;;;4.97;1.27;;;;;;;11.20;68.78;99472.78;5044002;28;20412;-72
2023/03/26 04:41:11;;;;;;;5.38;1.15;;;;;;;11.19;68.58;99459.53;5035377;28;20414;-72
2023/03/26 04:43:45;;;;;;;3.03;1.00;;;;;;;11.19;68.79;99464.94;5046880;28;20973;-72
2023/03/26 04:46:11;;;;;;;4.15;1.15;;;;;;;11.17;68.82;99457.06;5032107;28;20398;-72
2023/03/26 04:48:37;;;;;;;8.15;1.27;;;;;;;11.17;69.08;99456.25;5039881;28;20487;-72
2023/03/26 04:51:05;;;;;;;3.47;1.02;;;;;;;11.15;69.24;99443.00;5032019;28;20813;-72
2023/03/26 04:53:31;;;;;;;5.07;0.98;;;;;;;11.16;69.03;99431.06;5027594;28;20397;-72
2023/03/26 04:56:24;;;;;;;1.97;1.30;;;;;;;11.15;69.33;99420.47;5019475;28;20406;-72
2023/03/26 04:58:50;;;;;;;3.97;1.58;;;;;;;11.13;69.15;99412.59;5016834;28;20748;-72
2023/03/26 05:01:16;;;;;;;3.65;1.60;;;;;;;11.10;69.12;99423.22;5046269;28;20411;-72
2023/03/26 05:03:44;;;;;;;4.77;1.10;;;;;;;11.11;69.12;99414.78;5024642;28;20918;-72
2023/03/26 05:06:11;;;;;;;3.92;1.42;;;;;;;11.12;68.79;99415.59;5022008;28;20936;-72
2023/03/26 05:08:36;;;;;;;6.70;1.88;;;;;;;11.10;68.89;99413.16;5015392;28;20408;-72
2023/03/26 05:11:01;;;;;;;6.43;1.97;;;;;;;11.11;69.02;99405.84;5026696;28;20405;-72
2023/03/26 05:13:26;;;;;;;6.73;1.40;;;;;;;11.12;69.20;99391.19;5018352;28;20425;-72
2023/03/26 05:15:52;;;;;;;5.07;1.40;;;;;;;11.10;69.26;99393.38;5020780;28;20408;-72
2023/03/26 05:18:17;;;;;;;5.20;1.10;;;;;;;11.10;68.90;99388.75;5025800;28;20398;-72
2023/03/26 05:20:43;;;;;;;2.57;1.10;;;;;;;11.12;69.19;99391.19;5044753;28;20921;-72
2023/03/26 05:23:09;;;;;;;3.65;1.17;;;;;;;11.14;69.05;99389.84;5030315;28;20395;-72
2023/03/26 05:25:35;;;;;;;6.82;1.20;;;;;;;11.13;69.20;99381.97;5031551;28;20438;-72
2023/03/26 05:28:01;;;;;;;5.65;1.40;;;;;;;11.13;69.34;99361.09;5039974;28;20415;-72
2023/03/26 05:30:26;;;;;;;5.47;1.30;;;;;;;11.14;69.33;99360.00;5030328;28;20475;-72
2023/03/26 05:32:51;;;;;;;5.93;1.63;;;;;;;11.17;69.04;99354.03;5019809;28;20445;-72
2023/03/26 05:35:18;;;;;;;5.03;1.70;;;;;;;11.18;69.40;99342.09;5019848;28;20762;-72
2023/03/26 05:37:48;;;;;;;11.67;1.63;;;;;;;11.18;69.54;99331.25;5020348;28;20832;-72
2023/03/26 05:40:15;;;;;;;6.03;1.48;;;;;;;11.19;69.50;99329.34;5025229;28;20407;-72
2023/03/26 05:42:41;;;;;;;7.63;1.70;;;;;;;11.16;69.70;99317.16;5015857;28;20403;-72
2023/03/26 05:45:08;;;;;;;6.37;1.97;;;;;;;11.15;69.82;99318.25;5031297;28;20390;-72
2023/03/26 05:47:34;;;;;;;7.05;2.25;;;;;;;11.02;70.08;99307.16;5031406;28;20395;-72
2023/03/26 05:49:59;;;;;;;4.83;2.20;;;;;;;10.93;70.61;99302.31;5025609;28;20402;-72
2023/03/26 05:52:25;;;;;;;7.93;1.83;;;;;;;11.04;70.26;99294.97;5027657;28;20404;-72
2023/03/26 05:54:50;;;;;;;4.97;1.50;;;;;;;11.13;70.14;99289.78;5017474;28;20399;-72
2023/03/26 05:57:16;;;;;;;8.20;1.50;;;;;;;11.15;69.93;99298.44;5020506;28;20488;-72
2023/03/26 05:59:41;;;;;;;3.70;1.55;;;;;;;11.18;69.85;99290.59;5029491;28;20403;-72
2023/03/26 06:02:08;;;;;;;6.05;0.98;;;;;;;11.21;69.96;99283.78;5031202;28;20509;-73
2023/03/26 06:04:33;;;;;;;4.20;1.20;;;;;;;11.24;69.96;99286.75;5025010;28;20871;-72
2023/03/26 06:06:58;;;;;;;6.00;1.30;;;;;;;11.26;70.13;99281.84;5021993;28;20402;-72
2023/03/26 06:09:24;;;;;;;7.15;1.40;;;;;;;11.27;70.05;99278.06;5034814;28;20403;-72
2023/03/26 06:11:49;;;;;;;2.73;1.70;;;;;;;11.28;70.05;99282.41;5018872;28;20387;-72
2023/03/26 06:14:15;;;;;;;4.85;1.27;;;;;;;11.27;70.02;99277.25;5029947;28;20423;-72
2023/03/26 06:16:40;;;;;;;5.80;1.37;;;;;;;11.30;70.00;99282.09;5023522;28;20413;-72
2023/03/26 06:19:05;;;;;;;8.95;1.80;;;;;;;11.30;70.14;99273.97;5034730;28;20490;-72
2023/03/26 06:21:30;;;;;;;51.50;18.53;;;;;;;11.30;70.35;99282.09;5043616;28;20420;-72
2023/03/26 06:23:56;;;;;;;55.80;16.02;;;;;;;11.28;70.43;99278.88;5020874;28;20419;-72
2023/03/26 06:26:21;;;;;;;24.30;7.67;;;;;;;11.27;70.38;99269.09;5027637;28;20419;-72
2023/03/26 06:28:47;;;;;;;15.70;5.53;;;;;;;11.21;70.54;99267.50;5026766;28;20436;-72
2023/03/26 06:31:12;;;;;;;10.10;4.17;;;;;;;11.17;71.05;99259.13;5033330;28;20433;-72
2023/03/26 06:33:37;;;;;;;9.25;3.88;;;;;;;11.21;71.15;99253.94;5031282;28;20408;-73
2023/03/26 06:36:03;;;;;;;8.40;3.03;;;;;;;11.25;71.23;99265.88;5020722;28;20472;-72
2023/03/26 06:38:28;;;;;;;5.57;2.30;;;;;;;11.27;71.17;99258.25;5032265;28;20410;-72
2023/03/26 06:40:54;;;;;;;5.03;2.10;;;;;;;11.25;71.74;99269.41;5024831;28;20411;-72
2023/03/26 06:43:19;;;;;;;7.50;2.37;;;;;;;11.23;72.07;99268.84;5025134;28;20491;-73
2023/03/26 06:45:49;;;;;;;9.47;2.63;;;;;;;11.21;72.53;99262.09;5015159;28;20401;-73
2023/03/26 06:48:15;;;;;;;9.80;3.38;;;;;;;11.18;72.57;99249.09;5022984;28;20410;-73
2023/03/26 06:50:40;;;;;;;6.57;2.00;;;;;;;11.13;72.47;99252.63;5034155;28;20580;-73
2023/03/26 06:53:05;;;;;;;6.87;1.93;;;;;;;11.16;72.40;99245.84;5024631;28;20836;-73
2023/03/26 06:55:31;;;;;;;5.40;1.77;;;;;;;11.18;72.00;99249.91;5021094;28;20409;-72
2023/03/26 06:57:57;;;;;;;6.50;1.80;;;;;;;11.18;72.24;99244.47;5022755;28;20415;-73
2023/03/26 07:00:22;;;;;;;6.15;1.63;;;;;;;11.18;72.95;99239.06;5030036;28;20422;-72
2023/03/26 07:02:47;;;;;;;8.03;1.63;;;;;;;11.18;73.28;99228.22;5024546;28;20911;-72
2023/03/26 07:05:13;;;;;;;9.40;1.53;;;;;;;11.18;73.45;99243.66;5024732;28;20412;-72
2023/03/26 07:07:39;;;;;;;8.37;1.87;;;;;;;11.14;73.45;99242.59;5021579;28;20399;-72
2023/03/26 07:10:05;;;;;;;5.57;1.70;;;;;;;11.12;73.66;99233.94;5030885;28;20399;-72
2023/03/26 07:12:31;;;;;;;5.28;1.65;;;;;;;11.13;74.24;99236.34;5033419;28;20952;-73
2023/03/26 07:14:56;;;;;;;7.30;1.73;;;;;;;11.15;74.32;99230.66;5048025;28;20394;-72
2023/03/26 07:17:21;;;;;;;5.37;2.00;;;;;;;11.17;74.55;99225.75;5031140;28;20399;-73
2023/03/26 07:19:46;;;;;;;8.17;1.50;;;;;;;11.12;74.65;99232.03;5019261;28;20412;-72
2023/03/26 07:22:18;;;;;;;5.73;1.87;;;;;;;11.10;74.80;99209.78;5027428;28;20477;-72
2023/03/26 07:24:44;;;;;;;4.32;1.60;;;;;;;11.10;75.02;99214.44;5031422;28;20411;-72
2023/03/26 07:27:33;;;;;;;4.43;1.83;;;;;;;11.07;75.40;99202.22;5027347;28;20937;-72
2023/03/26 07:30:12;;;;;;;3.63;1.60;;;;;;;11.10;75.43;99190.03;5022178;28;20473;-73
2023/03/26 07:32:45;;;;;;;6.28;1.63;;;;;;;11.12;75.55;99183.25;5022140;28;20470;-72
2023/03/26 07:35:27;;;;;;;4.30;1.50;;;;;;;11.14;75.66;99166.66;5026817;28;20400;-73
2023/03/26 07:38:13;;;;;;;5.65;1.10;;;;;;;11.14;75.71;99169.38;5026649;28;20418;-73
2023/03/26 07:41:08;;;;;;;5.68;1.33;;;;;;;11.12;75.63;99164.25;5021830;28;20503;-73
2023/03/26 07:43:37;;;;;;;4.93;1.80;;;;;;;10.97;75.64;99177.06;5038033;28;20460;-73
2023/03/26 07:46:02;;;;;;;2.47;1.30;;;;;;;10.90;76.31;99156.50;5025827;28;21063;-73
2023/03/26 07:48:39;;;;;;;4.47;1.37;;;;;;;11.02;76.06;99147.22;5025699;28;20435;-73
2023/03/26 07:51:05;;;;;;;5.23;1.90;;;;;;;11.09;75.77;99145.03;5029587;28;20452;-73
2023/03/26 07:53:31;;;;;;;5.53;1.38;;;;;;;11.10;76.02;99163.72;5035369;28;20434;-73
2023/03/26 07:56:09;;;;;;;3.93;1.23;;;;;;;11.16;75.83;99159.09;5019388;28;20903;-74
2023/03/26 07:58:48;;;;;;;7.93;1.60;;;;;;;11.18;76.04;99165.03;5028770;28;20415;-74
2023/03/26 08:01:42;;;;;;;6.00;1.90;;;;;;;11.16;75.88;99164.50;5045124;28;20417;-73
2023/03/26 08:04:32;;;;;;;7.60;1.88;;;;;;;11.15;76.11;99150.13;5020959;28;20391;-74
2023/03/26 08:07:09;;;;;;;4.93;1.73;;;;;;;11.18;75.82;99184.00;5028261;28;20444;-73
2023/03/26 08:09:48;;;;;;;9.85;4.45;;;;;;;11.13;76.18;99184.84;5026373;28;20408;-73
2023/03/26 08:12:23;;;;;;;7.43;3.75;;;;;;;11.00;76.43;99169.19;5029101;28;20408;-76
2023/03/26 08:14:53;;;;;;;7.72;4.30;;;;;;;11.00;76.98;99171.88;5022592;28;20383;-74
2023/03/26 08:17:43;;;;;;;10.23;4.10;;;;;;;11.15;76.58;99166.41;5031814;28;20391;-74
2023/03/26 08:20:21;;;;;;;5.33;3.30;;;;;;;11.16;76.46;99156.38;5025862;28;20398;-74
2023/03/26 08:22:54;;;;;;;7.90;2.50;;;;;;;11.23;76.59;99159.59;5032154;28;20406;-74
2023/03/26 08:25:26;;;;;;;7.22;2.38;;;;;;;11.27;76.40;99157.91;5022721;28;20960;-74
2023/03/26 08:28:07;;;;;;;9.90;2.67;;;;;;;11.35;76.06;99163.56;5025062;28;20468;-74
2023/03/26 08:30:32;;;;;;;4.20;1.92;;;;;;;11.37;76.27;99157.84;5036576;28;20542;-74
2023/03/26 08:33:03;;;;;;;6.83;1.93;;;;;;;11.39;76.50;99163.81;5030459;28;20465;-74
2023/03/26 08:35:28;;;;;;;8.10;2.53;;;;;;;11.74;75.84;99170.91;5019968;28;20404;-74
2023/03/26 08:37:54;;;;;;;4.70;1.50;;;;;;;12.24;74.91;99166.94;5029461;28;20415;-74
2023/03/26 08:40:57;;;;;;;5.83;2.00;;;;;;;12.67;73.41;99155.06;5021400;28;20929;-74
2023/03/26 08:43:51;;;;;;;3.67;1.77;;;;;;;12.47;73.03;99147.16;5030581;28;20470;-73
2023/03/26 08:46:47;;;;;;;5.10;2.20;;;;;;;12.26;73.54;99151.16;5008987;28;20406;-76
2023/03/26 08:49:21;;;;;;;5.18;2.40;;;;;;;12.17;74.36;99164.56;5026398;28;20395;-74
2023/03/26 08:52:24;;;;;;;6.05;2.47;;;;;;;12.15;74.66;99145.00;5033036;28;20407;-74
2023/03/26 08:55:05;;;;;;;3.28;1.70;;;;;;;12.19;74.94;99150.69;5025465;28;20403;-74
2023/03/26 08:57:54;;;;;;;7.25;2.85;;;;;;;12.35;74.82;99142.09;5016719;28;20395;-74
2023/03/26 09:00:50;;;;;;;4.20;1.55;;;;;;;12.70;74.37;99140.06;5020998;28;20473;-74
2023/03/26 09:03:53;;;;;;;7.20;2.47;;;;;;;12.80;74.30;99142.69;5014542;28;20490;-74
2023/03/26 09:06:26;;;;;;;7.80;2.10;;;;;;;12.72;74.41;99140.59;5026473;28;20412;-74
2023/03/26 09:09:10;;;;;;;7.45;2.30;;;;;;;12.60;74.62;99140.19;5025134;28;20407;-73
2023/03/26 09:12:18;;;;;;;4.45;1.50;;;;;;;12.57;75.00;99132.63;5022898;28;20403;-73
2023/03/26 09:15:14;;;;;;;5.43;1.55;;;;;;;12.71;75.18;99131.63;5037140;28;20906;-74
2023/03/26 09:18:17;;;;;;;4.82;1.70;;;;;;;13.06;74.65;99124.09;5019660;28;20394;-73
2023/03/26 09:21:01;;;;;;;5.55;1.73;;;;;;;13.41;74.33;99124.44;5029879;28;20888;-74
2023/03/26 09:23:32;;;;;;;5.07;1.50;;;;;;;13.83;73.79;99128.13;5026276;28;20449;-74
2023/03/26 09:26:28;;;;;;;4.32;1.50;;;;;;;14.08;73.08;99132.31;5025272;28;20849;-74
2023/03/26 09:29:18;;;;;;;3.23;1.17;;;;;;;14.57;72.81;99118.06;5027384;28;20430;-74
2023/03/26 09:32:05;;;;;;;7.13;1.40;;;;;;;14.64;72.38;99113.81;5030855;28;20395;-73
2023/03/26 09:34:50;;;;;;;5.00;1.23;;;;;;;15.07;71.40;99111.53;5026424;28;20438;-73
2023/03/26 09:37:34;;;;;;;3.17;0.97;;;;;;;15.57;69.68;99099.47;5019450;28;20398;-74
2023/03/26 09:40:16;;;;;;;4.65;1.08;;;;;;;16.05;67.71;99104.25;5022256;28;20411;-74
2023/03/26 09:42:55;;;;;;;5.80;1.20;;;;;;;16.10;67.75;99101.41;5012330;28;20573;-74
2023/03/26 09:45:41;;;;;;;3.47;0.88;;;;;;;16.62;66.12;99107.13;5017367;28;20406;-74
2023/03/26 09:48:07;;;;;;;1.92;1.30;;;;;;;16.63;63.71;99090.38;5027764;28;20420;-74
2023/03/26 09:50:53;;;;;;;8.70;1.20;;;;;;;16.36;62.36;99098.78;5013878;28;20417;-74
2023/03/26 09:53:52;;;;;;;5.35;1.25;;;;;;;17.23;60.18;99093.22;5010182;28;20414;-75
2023/03/26 09:56:37;;;;;;;3.00;1.27;;;;;;;17.07;59.20;99105.75;5013648;28;20424;-75
2023/03/26 09:59:19;;;;;;;2.72;1.00;;;;;;;18.54;55.39;99102.50;5010796;28;20427;-75
2023/03/26 10:02:03;;;;;;;3.17;0.83;;;;;;;19.83;49.44;99093.34;5025049;28;20426;-74
2023/03/26 10:05:03;;;;;;;6.60;1.25;;;;;;;20.16;45.88;99076.81;5025014;28;20415;-74
2023/03/26 10:07:37;;;;;;;4.03;1.00;;;;;;;18.69;47.41;99075.66;5023313;28;20465;-74
2023/03/26 10:10:06;;;;;;;3.00;0.80;;;;;;;18.93;45.94;99067.59;5030710;28;20561;-74
2023/03/26 10:12:58;;;;;;;2.05;0.50;;;;;;;17.21;48.34;99081.78;5031569;28;20411;-74
2023/03/26 10:15:50;;;;;;;2.60;1.00;;;;;;;18.59;47.42;99082.31;5028291;28;20457;-75
2023/03/26 10:18:34;;;;;;;63.00;9.05;;;;;;;20.92;40.05;99082.50;5020609;28;20407;-74
2023/03/26 10:21:14;;;;;;;1999.90;999.90;;;;;;;22.05;37.71;99080.31;5021526;28;20407;-74
2023/03/26 10:23:51;;;;;;;1999.90;999.90;;;;;;;22.75;36.04;99061.97;5023950;28;20453;-74
2023/03/26 10:26:26;;;;;;;1999.90;999.90;;;;;;;23.44;35.06;99079.72;5025974;28;20410;-74
2023/03/26 10:29:23;;;;;;;1999.90;999.90;;;;;;;24.02;32.33;99083.25;5029616;28;20406;-74
2023/03/26 10:32:05;;;;;;;1999.90;684.53;;;;;;;24.38;32.48;99078.34;5020769;28;20411;-75
2023/03/26 10:34:52;;;;;;;1999.90;748.67;;;;;;;25.22;31.20;99078.91;5029224;28;20770;-74
2023/03/26 10:37:36;;;;;;;635.80;170.63;;;;;;;25.27;30.46;99090.47;5028732;28;20881;-75
2023/03/26 10:40:20;;;;;;;66.50;28.15;;;;;;;25.86;29.78;99085.28;5031611;28;20419;-75
2023/03/26 10:43:18;;;;;;;0.55;0.32;;;;;;;26.40;29.07;99088.25;5020213;28;20427;-74
2023/03/26 10:46:00;;;;;;;0.90;0.32;;;;;;;26.62;28.30;99076.13;5027320;28;20482;-75
2023/03/26 10:48:41;;;;;;;2.93;0.70;;;;;;;26.37;27.02;99072.34;5027424;28;20438;-74
2023/03/26 10:51:40;;;;;;;3.10;0.47;;;;;;;26.55;26.99;99075.25;5028697;28;20411;-75
2023/03/26 10:54:31;;;;;;;2.47;0.55;;;;;;;26.95;25.79;99082.75;5025765;28;20410;-74
2023/03/26 10:56:57;;;;;;;1.23;0.80;;;;;;;26.43;25.90;99087.47;5029184;28;20502;-74
2023/03/26 10:59:25;;;;;;;2.00;0.50;;;;;;;26.86;25.52;99097.00;5023526;28;20507;-74
2023/03/26 11:02:22;;;;;;;1.40;0.57;;;;;;;27.17;25.09;99092.81;5028983;28;20465;-74
2023/03/26 11:04:59;;;;;;;1.40;0.65;;;;;;;27.57;24.88;99095.44;5029484;28;20457;-74
2023/03/26 11:07:42;;;;;;;0.40;0.38;;;;;;;27.96;24.53;99094.81;5025617;28;20506;-74
2023/03/26 11:10:48;;;;;;;2.65;0.40;;;;;;;27.95;23.83;99105.13;5025038;28;20441;-73
2023/03/26 11:13:30;;;;;;;2.83;0.43;;;;;;;27.81;24.33;99107.88;5024609;28;20423;-74
2023/03/26 11:16:02;;;;;;;0.75;0.63;;;;;;;27.96;23.94;99103.94;5016336;28;20539;-74
2023/03/26 11:18:39;;;;;;;6.93;1.10;;;;;;;28.32;24.16;99108.41;5028813;28;20758;-73
2023/03/26 11:21:17;;;;;;;15.30;1.60;;;;;;;27.64;23.54;99106.59;5027301;28;20442;-74
2023/03/26 11:24:10;;;;;;;3.30;0.70;;;;;;;26.11;25.62;99122.44;5023645;28;20403;-74
2023/03/26 11:26:51;;;;;;;0.88;0.30;;;;;;;27.20;24.77;99117.09;5022058;28;20729;-74
2023/03/26 11:29:54;;;;;;;3.00;0.70;;;;;;;25.02;26.24;99124.56;5043472;28;20449;-74
2023/03/26 11:32:24;;;;;;;1.50;0.45;;;;;;;24.12;27.45;99115.06;5031066;28;20399;-74
2023/03/26 11:35:07;;;;;;;1.98;0.60;;;;;;;25.05;27.24;99109.94;5016806;28;20960;-74
2023/03/26 11:37:40;;;;;;;2.05;0.85;;;;;;;26.11;25.59;99109.38;5021127;28;20513;-74
2023/03/26 11:40:15;;;;;;;2.25;0.93;;;;;;;27.07;25.15;99102.69;5030657;28;20805;-73
2023/03/26 11:42:41;;;;;;;2.85;0.68;;;;;;;26.49;25.30;99094.28;5025160;28;20774;-74
2023/03/26 11:45:16;;;;;;;3.75;0.70;;;;;;;26.25;25.65;99106.75;5026292;28;20410;-74
2023/03/26 11:47:49;;;;;;;1.55;0.90;;;;;;;26.67;25.74;99098.03;5025409;28;20403;-74
2023/03/26 11:50:25;;;;;;;0.65;0.60;;;;;;;27.28;25.12;99090.91;5030087;28;21037;-74
2023/03/26 11:52:50;;;;;;;1.92;0.88;;;;;;;26.21;25.65;99092.03;5022715;28;20886;-73
2023/03/26 11:55:16;;;;;;;2.63;1.20;;;;;;;26.12;26.89;99099.84;5025332;28;20414;-74
2023/03/26 11:57:49;;;;;;;2.40;0.70;;;;;;;26.74;25.98;99083.38;5022554;28;20407;-73